メインページ
METAR-TAF:

METAR-TAF

空港 :

Fort Drum, ニューヨーク, アメリカ合衆国

緯度: 44-03N, 経度: 075-44W, 海抜: 207m

現時点の気象観測

当レポートは48分前の22:26(UTC)に作成
西の風 8kt、最大16ktの突風を伴う
気温 1°C
湿度 75%
気圧 1015 hPa
視程: 16.1km
高度1700ftの雲は散在している
高度2300ftの曇り

METAR: KGTB 162226Z AUTO 26008G16KT 10SM SCT017 OVC023 01/M03 A2998 RMK AO2 CIG 017V023 CIG 022 RWY03 SLP160

時間: 18:14 (23:14 UTC)


TAF: 見つかりません

4,000以上の空港の気象観測と天気予報(METAR報とTAF報)

利用可能な観測所は地図上に黄色い丸と赤い丸で示す。

丸の上にカーソルを重ねると観測所名を参照できる。

次にクリックすると気象観測と天気予報を参照できる。

マップの切り替え:黒色「×」印の緑ボタンをクリックして拡大、「-」印の緑ボタンをクリックして縮小、緑色の三角印をクリックして隣りの地図に切り替え


METAR-TAF: